createdAt,value
2022-07-30T00:03:10.836Z,77.60
2022-07-30T00:08:09.007Z,77.40
2022-07-30T00:13:07.960Z,77.40
2022-07-30T00:18:07.615Z,77.50
2022-07-30T00:23:06.680Z,77.90
2022-07-30T00:28:05.024Z,77.80
2022-07-30T00:33:03.353Z,77.90
2022-07-30T00:38:03.042Z,77.80
2022-07-30T00:43:01.266Z,77.80
2022-07-30T00:48:01.493Z,77.80
2022-07-30T00:52:59.702Z,77.50
2022-07-30T00:57:59.355Z,77.50
2022-07-30T01:02:57.588Z,77.60
2022-07-30T01:07:55.842Z,77.60
2022-07-30T01:12:54.593Z,77.60
2022-07-30T01:17:56.373Z,77.70
2022-07-30T01:23:02.674Z,78.00
2022-07-30T01:28:05.866Z,77.90
2022-07-30T01:33:07.359Z,77.80
2022-07-30T01:38:08.802Z,78.00
2022-07-30T01:43:10.023Z,77.90
2022-07-30T01:48:11.087Z,77.90
2022-07-30T01:53:09.940Z,78.00
2022-07-30T01:58:11.738Z,78.10
2022-07-30T02:03:11.724Z,78.00
2022-07-30T02:08:19.867Z,77.70
2022-07-30T02:13:29.613Z,76.90
2022-07-30T02:18:33.999Z,77.70
2022-07-30T02:23:42.022Z,77.70
2022-07-30T02:28:44.543Z,77.50
2022-07-30T02:33:48.800Z,78.00
2022-07-30T02:38:50.738Z,78.20
2022-07-30T02:43:54.349Z,78.40
2022-07-30T02:48:55.759Z,78.00
2022-07-30T02:53:56.236Z,78.20
2022-07-30T02:58:57.376Z,78.30
2022-07-30T03:03:57.331Z,78.60
2022-07-30T03:08:58.259Z,78.60
2022-07-30T03:13:58.385Z,78.70
2022-07-30T03:18:58.498Z,78.60
2022-07-30T03:23:57.885Z,78.70
2022-07-30T03:28:58.162Z,78.90
2022-07-30T03:33:56.513Z,79.70
2022-07-30T03:38:55.673Z,79.80
2022-07-30T03:43:56.357Z,80.00
2022-07-30T03:48:56.927Z,80.20
2022-07-30T03:53:56.090Z,80.40
2022-07-30T03:59:15.091Z,80.50
2022-07-30T04:04:14.863Z,80.50
2022-07-30T04:09:14.404Z,80.50
2022-07-30T04:14:13.284Z,80.80
2022-07-30T04:19:21.027Z,81.00
2022-07-30T04:24:21.316Z,81.90
2022-07-30T04:29:24.435Z,81.50
2022-07-30T04:34:26.229Z,81.30
2022-07-30T04:39:24.574Z,81.50
2022-07-30T04:44:22.722Z,81.90
2022-07-30T04:49:44.253Z,82.20
2022-07-30T04:54:46.138Z,82.60
2022-07-30T04:59:44.645Z,82.10
2022-07-30T05:04:45.740Z,81.90
2022-07-30T05:09:44.189Z,81.70
2022-07-30T05:14:46.579Z,81.10
2022-07-30T05:19:48.342Z,81.00
2022-07-30T05:24:47.014Z,80.90
2022-07-30T05:29:45.198Z,80.90
2022-07-30T05:34:49.837Z,80.70
2022-07-30T05:40:02.883Z,80.90
2022-07-30T05:45:22.210Z,80.70
2022-07-30T05:50:21.883Z,82.10
2022-07-30T05:55:20.317Z,81.60
2022-07-30T06:00:25.892Z,81.40
2022-07-30T06:05:28.240Z,81.70
2022-07-30T06:10:30.130Z,81.30
2022-07-30T06:15:28.768Z,80.60
2022-07-30T06:20:28.658Z,80.20
2022-07-30T06:25:45.718Z,80.00
2022-07-30T06:30:45.891Z,80.10
2022-07-30T06:35:45.543Z,80.00
2022-07-30T06:40:47.403Z,80.80
2022-07-30T06:45:49.490Z,80.80
2022-07-30T06:50:57.611Z,80.00
2022-07-30T06:56:00.190Z,79.80
2022-07-30T07:01:05.440Z,79.90
2022-07-30T07:06:11.662Z,79.60
2022-07-30T07:11:09.934Z,79.70
2022-07-30T07:16:24.945Z,79.70
2022-07-30T07:21:26.342Z,79.60
2022-07-30T07:26:26.824Z,79.60
2022-07-30T07:32:05.822Z,79.60
2022-07-30T07:36:46.468Z,79.40
2022-07-30T07:41:49.103Z,79.40
2022-07-30T07:46:51.778Z,79.50
2022-07-30T07:51:51.736Z,79.50
2022-07-30T07:56:53.001Z,79.40
2022-07-30T08:01:57.316Z,79.40
2022-07-30T08:07:24.534Z,79.20
2022-07-30T08:12:45.540Z,79.00
2022-07-30T08:18:07.962Z,79.10
2022-07-30T08:23:43.095Z,79.40
2022-07-30T08:28:43.123Z,79.60
2022-07-30T08:33:41.566Z,79.90
2022-07-30T08:38:41.999Z,80.50
2022-07-30T08:43:41.114Z,80.10
2022-07-30T08:48:39.920Z,79.60
2022-07-30T08:53:38.608Z,79.50
2022-07-30T08:58:39.756Z,78.80
2022-07-30T09:03:44.075Z,78.30
2022-07-30T09:08:43.269Z,77.60
2022-07-30T09:13:44.815Z,77.90
2022-07-30T09:18:45.319Z,77.30
2022-07-30T09:23:56.839Z,77.60
2022-07-30T09:29:19.876Z,77.00
2022-07-30T09:34:38.773Z,76.80
2022-07-30T09:39:38.917Z,76.10
2022-07-30T09:45:09.154Z,75.90
2022-07-30T09:50:10.019Z,75.30
2022-07-30T09:55:09.854Z,75.10
2022-07-30T10:00:30.395Z,73.20
2022-07-30T10:05:55.224Z,72.80
2022-07-30T10:10:54.100Z,73.80
2022-07-30T10:15:54.673Z,74.10
2022-07-30T10:20:53.022Z,72.80
2022-07-30T10:26:17.185Z,72.90
2022-07-30T10:31:48.282Z,71.60
2022-07-30T10:36:51.943Z,70.10
2022-07-30T10:42:16.799Z,69.40
2022-07-30T10:47:19.657Z,68.50
2022-07-30T10:52:37.922Z,68.80
2022-07-30T10:57:41.568Z,68.30
2022-07-30T11:03:15.165Z,67.80
2022-07-30T11:08:37.268Z,67.70
2022-07-30T11:13:55.323Z,68.10
2022-07-30T11:19:56.626Z,67.30
2022-07-30T11:24:46.091Z,67.10
2022-07-30T11:29:51.355Z,65.40
2022-07-30T11:34:51.829Z,66.30
2022-07-30T11:40:10.941Z,66.00
2022-07-30T11:45:29.795Z,65.20
2022-07-30T11:50:33.704Z,65.50
2022-07-30T11:55:34.261Z,65.00
2022-07-30T12:00:37.772Z,65.70
2022-07-30T12:05:37.417Z,64.30
2022-07-30T12:10:39.099Z,66.50
2022-07-30T12:15:39.263Z,65.00
2022-07-30T12:20:39.353Z,62.80
2022-07-30T12:25:39.830Z,62.60
2022-07-30T12:30:46.285Z,60.00
2022-07-30T12:35:50.585Z,61.00
2022-07-30T12:40:57.590Z,60.50
2022-07-30T12:46:00.261Z,60.90
2022-07-30T12:51:07.623Z,60.30
2022-07-30T12:56:14.672Z,60.70
2022-07-30T13:01:13.583Z,59.20
2022-07-30T13:06:20.747Z,59.10
2022-07-30T13:11:20.351Z,58.30
2022-07-30T13:16:19.373Z,59.00
2022-07-30T13:21:19.017Z,57.90
2022-07-30T13:26:17.687Z,58.80
2022-07-30T13:31:16.123Z,57.70
2022-07-30T13:36:14.495Z,56.80
2022-07-30T13:41:14.432Z,57.70
2022-07-30T13:46:12.672Z,57.40
2022-07-30T13:51:10.955Z,56.30
2022-07-30T13:56:12.778Z,58.00
2022-07-30T14:01:17.625Z,55.90
2022-07-30T14:06:17.032Z,57.10
2022-07-30T14:11:16.282Z,55.60
2022-07-30T14:16:42.361Z,56.30
2022-07-30T14:21:34.531Z,56.60
2022-07-30T14:26:36.497Z,55.80
2022-07-30T14:31:36.477Z,55.90
2022-07-30T14:36:37.197Z,56.40
2022-07-30T14:41:37.201Z,57.10
2022-07-30T14:46:36.824Z,57.30
2022-07-30T14:51:50.108Z,56.70
2022-07-30T14:56:48.506Z,56.80
2022-07-30T15:01:48.257Z,57.70
2022-07-30T15:06:46.502Z,56.50
2022-07-30T15:12:08.884Z,56.90
2022-07-30T15:17:04.710Z,57.80
2022-07-30T15:22:03.950Z,57.70
2022-07-30T15:27:02.503Z,58.30
2022-07-30T15:32:01.697Z,57.80
2022-07-30T15:37:01.606Z,58.30
2022-07-30T15:42:00.446Z,58.10
2022-07-30T15:46:59.055Z,58.30
2022-07-30T15:51:59.701Z,58.60
2022-07-30T15:57:01.028Z,58.50
2022-07-30T16:02:00.124Z,59.00
2022-07-30T16:06:58.531Z,59.00
2022-07-30T16:11:59.439Z,58.30
2022-07-30T16:16:58.011Z,57.80
2022-07-30T16:21:56.714Z,57.80
2022-07-30T16:26:54.941Z,58.20
2022-07-30T16:31:54.513Z,58.80
2022-07-30T16:36:52.734Z,59.20
2022-07-30T16:41:51.037Z,60.30
2022-07-30T16:46:49.429Z,61.60
2022-07-30T16:51:49.011Z,62.50
2022-07-30T16:56:47.276Z,63.00
2022-07-30T17:01:45.586Z,63.20
2022-07-30T17:06:44.394Z,64.50
2022-07-30T17:11:46.929Z,64.30
2022-07-30T17:16:50.153Z,64.10
2022-07-30T17:21:48.400Z,64.50
2022-07-30T17:26:47.944Z,64.70
2022-07-30T17:31:46.741Z,64.90
2022-07-30T17:36:51.990Z,64.50
2022-07-30T17:42:06.772Z,64.70
2022-07-30T17:47:05.127Z,65.10
2022-07-30T17:52:03.751Z,66.30
2022-07-30T17:57:03.659Z,66.30
2022-07-30T18:02:04.243Z,66.40
2022-07-30T18:07:03.092Z,66.70
2022-07-30T18:12:01.717Z,66.40
2022-07-30T18:17:02.793Z,67.00
2022-07-30T18:22:02.267Z,67.50
2022-07-30T18:27:01.336Z,67.50
2022-07-30T18:32:01.304Z,68.20
2022-07-30T18:36:59.945Z,68.60
2022-07-30T18:41:58.192Z,67.80
2022-07-30T18:46:56.437Z,68.60
2022-07-30T18:51:56.950Z,68.80
2022-07-30T18:56:55.181Z,69.00
2022-07-30T19:01:53.792Z,69.00
2022-07-30T19:06:52.140Z,69.00
2022-07-30T19:11:51.785Z,69.30
2022-07-30T19:16:50.103Z,69.20
2022-07-30T19:21:49.146Z,69.70
2022-07-30T19:26:47.484Z,70.00
2022-07-30T19:31:47.108Z,70.00
2022-07-30T19:36:45.360Z,68.80
2022-07-30T19:41:43.718Z,69.30
2022-07-30T19:46:43.584Z,70.10
2022-07-30T19:52:10.638Z,70.70
2022-07-30T19:57:01.434Z,70.80
2022-07-30T20:02:01.574Z,71.40
2022-07-30T20:07:01.198Z,71.50
2022-07-30T20:11:59.780Z,71.40
2022-07-30T20:17:02.340Z,71.30
2022-07-30T20:22:02.233Z,71.40
2022-07-30T20:27:01.702Z,71.50
2022-07-30T20:32:21.807Z,71.80
2022-07-30T20:37:22.426Z,72.00
2022-07-30T20:42:21.866Z,72.30
2022-07-30T20:47:34.462Z,72.70
2022-07-30T20:52:40.132Z,72.60
2022-07-30T20:57:56.699Z,72.70
2022-07-30T21:02:57.448Z,72.60
2022-07-30T21:13:15.903Z,74.20
2022-07-30T21:18:14.407Z,74.00
2022-07-30T21:23:18.662Z,74.10
2022-07-30T21:28:27.601Z,73.90
2022-07-30T21:33:31.180Z,74.10
2022-07-30T21:38:31.888Z,73.80
2022-07-30T21:43:30.625Z,73.50
2022-07-30T21:48:31.958Z,74.00
2022-07-30T21:53:44.801Z,74.50
2022-07-30T21:58:43.799Z,74.50
2022-07-30T22:04:03.972Z,74.40
2022-07-30T22:09:03.409Z,74.60
2022-07-30T22:14:02.829Z,75.10
2022-07-30T22:19:01.710Z,74.80
2022-07-30T22:24:02.203Z,74.50
2022-07-30T22:29:01.081Z,74.70
2022-07-30T22:33:59.979Z,75.60
2022-07-30T22:38:59.344Z,75.90
2022-07-30T22:43:58.962Z,76.30
2022-07-30T22:48:57.160Z,76.60
2022-07-30T22:54:12.127Z,76.40
2022-07-30T22:59:12.560Z,76.40
2022-07-30T23:04:10.878Z,76.80
2022-07-30T23:09:10.127Z,76.90
2022-07-30T23:12:26.823Z,73.90
2022-07-30T23:14:08.993Z,77.30
2022-07-30T23:19:09.538Z,77.70
2022-07-30T23:24:17.748Z,77.90
2022-07-30T23:29:16.138Z,78.20
2022-07-30T23:34:15.840Z,78.00
2022-07-30T23:39:14.626Z,78.20
2022-07-30T23:44:12.832Z,78.70
2022-07-30T23:49:11.148Z,78.70
2022-07-30T23:54:11.019Z,78.80
2022-07-30T23:59:09.255Z,78.90
